sensor_id;sensor_type;location;lat;lon;timestamp;pressure;altitude;pressure_sealevel;temperature;humidity
62031;BME280;62035;52.094;5.112;2023-02-18T00:01:33;102323.34;;;11.76;100.00
62031;BME280;62035;52.094;5.112;2023-02-18T00:04:01;102323.34;;;11.65;100.00
62031;BME280;62035;52.094;5.112;2023-02-18T00:06:31;102311.38;;;11.82;100.00
62031;BME280;62035;52.094;5.112;2023-02-18T00:09:02;102319.97;;;11.74;100.00
62031;BME280;62035;52.094;5.112;2023-02-18T00:11:33;102322.19;;;11.80;100.00
62031;BME280;62035;52.094;5.112;2023-02-18T00:14:04;102318.63;;;11.57;100.00
62031;BME280;62035;52.094;5.112;2023-02-18T00:16:33;102316.09;;;11.56;100.00
62031;BME280;62035;52.094;5.112;2023-02-18T00:19:02;102307.13;;;11.57;100.00
62031;BME280;62035;52.094;5.112;2023-02-18T00:21:34;102305.03;;;11.49;100.00
62031;BME280;62035;52.094;5.112;2023-02-18T00:24:03;102313.59;;;11.19;100.00
62031;BME280;62035;52.094;5.112;2023-02-18T00:26:31;102312.44;;;11.46;100.00
62031;BME280;62035;52.094;5.112;2023-02-18T00:28:59;102310.50;;;11.48;100.00
62031;BME280;62035;52.094;5.112;2023-02-18T00:31:30;102299.19;;;11.33;100.00
62031;BME280;62035;52.094;5.112;2023-02-18T00:33:59;102299.84;;;11.48;100.00
62031;BME280;62035;52.094;5.112;2023-02-18T00:36:27;102305.41;;;11.45;100.00
62031;BME280;62035;52.094;5.112;2023-02-18T00:38:59;102308.06;;;11.45;100.00
62031;BME280;62035;52.094;5.112;2023-02-18T00:41:29;102299.44;;;11.41;100.00
62031;BME280;62035;52.094;5.112;2023-02-18T00:43:58;102294.34;;;11.38;100.00
62031;BME280;62035;52.094;5.112;2023-02-18T00:46:26;102296.94;;;11.51;100.00
62031;BME280;62035;52.094;5.112;2023-02-18T00:48:54;102293.66;;;11.58;100.00
62031;BME280;62035;52.094;5.112;2023-02-18T00:51:23;102291.25;;;11.55;100.00
62031;BME280;62035;52.094;5.112;2023-02-18T00:53:51;102290.84;;;11.38;100.00
62031;BME280;62035;52.094;5.112;2023-02-18T00:56:21;102282.31;;;11.10;100.00
62031;BME280;62035;52.094;5.112;2023-02-18T00:58:49;102289.69;;;11.07;100.00
62031;BME280;62035;52.094;5.112;2023-02-18T01:01:18;102301.38;;;10.93;100.00
62031;BME280;62035;52.094;5.112;2023-02-18T01:03:46;102299.06;;;10.88;100.00
62031;BME280;62035;52.094;5.112;2023-02-18T01:06:14;102290.50;;;10.96;100.00
62031;BME280;62035;52.094;5.112;2023-02-18T01:08:42;102294.03;;;10.96;100.00
62031;BME280;62035;52.094;5.112;2023-02-18T01:11:10;102275.59;;;10.93;100.00
62031;BME280;62035;52.094;5.112;2023-02-18T01:13:41;102292.47;;;11.05;100.00
62031;BME280;62035;52.094;5.112;2023-02-18T01:16:09;102288.69;;;10.96;100.00
62031;BME280;62035;52.094;5.112;2023-02-18T01:18:38;102296.53;;;10.87;100.00
62031;BME280;62035;52.094;5.112;2023-02-18T01:21:07;102288.41;;;10.77;100.00
62031;BME280;62035;52.094;5.112;2023-02-18T01:23:35;102299.84;;;10.66;100.00
62031;BME280;62035;52.094;5.112;2023-02-18T01:26:05;102299.03;;;10.53;100.00
62031;BME280;62035;52.094;5.112;2023-02-18T01:28:33;102281.22;;;10.66;100.00
62031;BME280;62035;52.094;5.112;2023-02-18T01:31:05;102270.09;;;10.73;100.00
62031;BME280;62035;52.094;5.112;2023-02-18T01:33:34;102277.16;;;10.85;100.00
62031;BME280;62035;52.094;5.112;2023-02-18T01:36:03;102258.53;;;10.96;100.00
62031;BME280;62035;52.094;5.112;2023-02-18T01:38:31;102260.53;;;10.81;100.00
62031;BME280;62035;52.094;5.112;2023-02-18T01:40:59;102259.53;;;11.06;100.00
62031;BME280;62035;52.094;5.112;2023-02-18T01:43:26;102259.03;;;11.01;100.00
62031;BME280;62035;52.094;5.112;2023-02-18T01:45:58;102256.16;;;11.04;100.00
62031;BME280;62035;52.094;5.112;2023-02-18T01:48:36;102250.81;;;11.04;100.00
62031;BME280;62035;52.094;5.112;2023-02-18T01:51:10;102259.41;;;10.96;100.00
62031;BME280;62035;52.094;5.112;2023-02-18T01:53:46;102257.00;;;11.05;100.00
62031;BME280;62035;52.094;5.112;2023-02-18T01:56:23;102256.22;;;10.91;100.00
62031;BME280;62035;52.094;5.112;2023-02-18T01:58:56;102245.19;;;10.85;100.00
62031;BME280;62035;52.094;5.112;2023-02-18T02:01:30;102233.84;;;10.94;100.00
62031;BME280;62035;52.094;5.112;2023-02-18T02:03:58;102237.00;;;10.99;100.00
62031;BME280;62035;52.094;5.112;2023-02-18T02:06:26;102233.16;;;11.14;100.00
62031;BME280;62035;52.094;5.112;2023-02-18T02:08:57;102233.50;;;10.98;100.00
62031;BME280;62035;52.094;5.112;2023-02-18T02:11:38;102221.53;;;11.15;100.00
62031;BME280;62035;52.094;5.112;2023-02-18T02:17:12;102213.75;;;11.01;100.00
62031;BME280;62035;52.094;5.112;2023-02-18T02:20:08;102206.38;;;11.05;100.00
62031;BME280;62035;52.094;5.112;2023-02-18T02:23:17;102186.16;;;11.35;100.00
62031;BME280;62035;52.094;5.112;2023-02-18T02:26:49;102172.09;;;11.33;100.00
62031;BME280;62035;52.094;5.112;2023-02-18T02:36:35;102152.13;;;11.28;100.00
62031;BME280;62035;52.094;5.112;2023-02-18T02:39:14;102140.25;;;11.54;100.00
62031;BME280;62035;52.094;5.112;2023-02-18T02:41:53;102134.31;;;11.40;100.00
62031;BME280;62035;52.094;5.112;2023-02-18T02:44:35;102128.00;;;11.29;100.00
62031;BME280;62035;52.094;5.112;2023-02-18T02:47:13;102135.16;;;11.40;100.00
62031;BME280;62035;52.094;5.112;2023-02-18T02:49:51;102121.22;;;11.36;100.00
62031;BME280;62035;52.094;5.112;2023-02-18T02:52:30;102117.34;;;11.52;100.00
62031;BME280;62035;52.094;5.112;2023-02-18T02:55:03;102108.50;;;11.51;100.00
62031;BME280;62035;52.094;5.112;2023-02-18T02:57:43;102088.75;;;11.43;100.00
62031;BME280;62035;52.094;5.112;2023-02-18T03:00:16;102097.25;;;11.36;100.00
62031;BME280;62035;52.094;5.112;2023-02-18T03:02:57;102093.13;;;11.44;100.00
62031;BME280;62035;52.094;5.112;2023-02-18T03:05:54;102087.41;;;11.48;100.00
62031;BME280;62035;52.094;5.112;2023-02-18T03:08:44;102087.97;;;11.63;100.00
62031;BME280;62035;52.094;5.112;2023-02-18T03:11:20;102089.34;;;11.57;100.00
62031;BME280;62035;52.094;5.112;2023-02-18T03:13:56;102099.41;;;11.54;100.00
62031;BME280;62035;52.094;5.112;2023-02-18T03:16:35;102100.88;;;11.47;100.00
62031;BME280;62035;52.094;5.112;2023-02-18T03:19:17;102088.91;;;11.73;100.00
62031;BME280;62035;52.094;5.112;2023-02-18T03:21:51;102090.06;;;11.59;100.00
62031;BME280;62035;52.094;5.112;2023-02-18T03:24:27;102073.06;;;11.60;100.00
62031;BME280;62035;52.094;5.112;2023-02-18T03:27:06;102070.56;;;11.48;100.00
62031;BME280;62035;52.094;5.112;2023-02-18T03:29:41;102064.03;;;11.41;100.00
62031;BME280;62035;52.094;5.112;2023-02-18T03:32:15;102052.16;;;11.45;100.00
62031;BME280;62035;52.094;5.112;2023-02-18T03:34:49;102048.53;;;11.34;100.00
62031;BME280;62035;52.094;5.112;2023-02-18T03:37:21;102047.56;;;11.35;100.00
62031;BME280;62035;52.094;5.112;2023-02-18T03:39:54;102038.38;;;11.28;100.00
62031;BME280;62035;52.094;5.112;2023-02-18T03:42:26;102030.50;;;11.27;100.00
62031;BME280;62035;52.094;5.112;2023-02-18T03:44:54;102030.50;;;11.38;100.00
62031;BME280;62035;52.094;5.112;2023-02-18T03:47:22;102008.16;;;11.18;100.00
62031;BME280;62035;52.094;5.112;2023-02-18T03:49:50;102017.66;;;11.32;100.00
62031;BME280;62035;52.094;5.112;2023-02-18T03:52:18;102020.44;;;11.30;100.00
62031;BME280;62035;52.094;5.112;2023-02-18T03:54:46;102012.09;;;11.24;100.00
62031;BME280;62035;52.094;5.112;2023-02-18T03:57:14;102006.16;;;11.31;100.00
62031;BME280;62035;52.094;5.112;2023-02-18T03:59:42;101999.84;;;11.32;100.00
62031;BME280;62035;52.094;5.112;2023-02-18T04:02:10;101999.84;;;11.32;100.00
62031;BME280;62035;52.094;5.112;2023-02-18T04:04:37;101993.28;;;11.36;100.00
62031;BME280;62035;52.094;5.112;2023-02-18T04:07:05;102008.06;;;11.41;100.00
62031;BME280;62035;52.094;5.112;2023-02-18T04:09:33;101987.72;;;11.40;100.00
62031;BME280;62035;52.094;5.112;2023-02-18T04:12:00;102004.59;;;11.29;100.00
62031;BME280;62035;52.094;5.112;2023-02-18T04:14:29;101999.84;;;11.32;100.00
62031;BME280;62035;52.094;5.112;2023-02-18T04:16:57;101996.00;;;11.25;100.00
62031;BME280;62035;52.094;5.112;2023-02-18T04:19:24;101995.97;;;11.36;100.00
62031;BME280;62035;52.094;5.112;2023-02-18T04:21:52;101996.22;;;11.33;100.00
62031;BME280;62035;52.094;5.112;2023-02-18T04:24:19;101992.34;;;11.26;100.00
62031;BME280;62035;52.094;5.112;2023-02-18T04:26:47;101987.31;;;11.12;100.00
62031;BME280;62035;52.094;5.112;2023-02-18T04:29:15;101987.53;;;11.20;100.00
62031;BME280;62035;52.094;5.112;2023-02-18T04:31:44;101980.00;;;11.25;100.00
62031;BME280;62035;52.094;5.112;2023-02-18T04:34:11;101980.97;;;11.24;100.00
62031;BME280;62035;52.094;5.112;2023-02-18T04:36:39;101981.22;;;11.21;100.00
62031;BME280;62035;52.094;5.112;2023-02-18T04:39:06;101977.59;;;11.22;100.00
62031;BME280;62035;52.094;5.112;2023-02-18T04:41:34;101971.09;;;11.15;100.00
62031;BME280;62035;52.094;5.112;2023-02-18T04:44:02;101974.88;;;11.01;100.00
62031;BME280;62035;52.094;5.112;2023-02-18T04:46:29;101973.78;;;11.04;100.00
62031;BME280;62035;52.094;5.112;2023-02-18T04:48:59;101949.78;;;11.15;100.00
62031;BME280;62035;52.094;5.112;2023-02-18T04:51:26;101959.25;;;11.08;100.00
62031;BME280;62035;52.094;5.112;2023-02-18T04:53:54;101943.97;;;11.10;100.00
62031;BME280;62035;52.094;5.112;2023-02-18T04:56:21;101943.50;;;11.05;100.00
62031;BME280;62035;52.094;5.112;2023-02-18T04:58:49;101933.53;;;11.18;100.00
62031;BME280;62035;52.094;5.112;2023-02-18T05:01:17;101937.50;;;11.24;100.00
62031;BME280;62035;52.094;5.112;2023-02-18T05:03:44;101944.31;;;11.17;100.00
62031;BME280;62035;52.094;5.112;2023-02-18T05:06:13;101943.72;;;11.13;100.00
62031;BME280;62035;52.094;5.112;2023-02-18T05:08:41;101947.00;;;11.17;100.00
62031;BME280;62035;52.094;5.112;2023-02-18T05:11:09;101935.22;;;11.19;100.00
62031;BME280;62035;52.094;5.112;2023-02-18T05:13:36;101946.59;;;11.21;100.00
62031;BME280;62035;52.094;5.112;2023-02-18T05:16:04;101947.66;;;11.30;100.00
62031;BME280;62035;52.094;5.112;2023-02-18T05:18:31;101942.81;;;11.24;100.00
62031;BME280;62035;52.094;5.112;2023-02-18T05:20:59;101934.09;;;11.22;100.00
62031;BME280;62035;52.094;5.112;2023-02-18T05:23:28;101947.72;;;11.19;100.00
62031;BME280;62035;52.094;5.112;2023-02-18T05:25:56;101937.38;;;11.25;100.00
62031;BME280;62035;52.094;5.112;2023-02-18T05:28:24;101937.84;;;11.30;100.00
62031;BME280;62035;52.094;5.112;2023-02-18T05:30:51;101918.66;;;11.16;100.00
62031;BME280;62035;52.094;5.112;2023-02-18T05:33:19;101926.66;;;11.16;100.00
62031;BME280;62035;52.094;5.112;2023-02-18T05:35:47;101926.78;;;11.14;100.00
62031;BME280;62035;52.094;5.112;2023-02-18T05:38:15;101917.28;;;11.21;100.00
62031;BME280;62035;52.094;5.112;2023-02-18T05:40:44;101920.06;;;11.20;100.00
62031;BME280;62035;52.094;5.112;2023-02-18T05:43:12;101904.53;;;11.25;100.00
62031;BME280;62035;52.094;5.112;2023-02-18T05:45:40;101907.59;;;11.20;100.00
62031;BME280;62035;52.094;5.112;2023-02-18T05:48:08;101907.09;;;11.26;100.00
62031;BME280;62035;52.094;5.112;2023-02-18T05:50:35;101909.56;;;11.18;100.00
62031;BME280;62035;52.094;5.112;2023-02-18T05:53:03;101910.56;;;11.06;100.00
62031;BME280;62035;52.094;5.112;2023-02-18T05:55:31;101912.66;;;11.23;100.00
62031;BME280;62035;52.094;5.112;2023-02-18T05:58:04;101907.81;;;11.28;100.00
62031;BME280;62035;52.094;5.112;2023-02-18T06:00:32;101887.19;;;11.30;100.00
62031;BME280;62035;52.094;5.112;2023-02-18T06:03:00;101885.88;;;11.25;100.00
62031;BME280;62035;52.094;5.112;2023-02-18T06:05:28;101890.84;;;11.29;100.00
62031;BME280;62035;52.094;5.112;2023-02-18T06:07:55;101907.69;;;11.30;100.00
62031;BME280;62035;52.094;5.112;2023-02-18T06:10:23;101896.13;;;11.41;100.00
62031;BME280;62035;52.094;5.112;2023-02-18T06:12:50;101894.50;;;11.49;100.00
62031;BME280;62035;52.094;5.112;2023-02-18T06:15:19;101890.41;;;11.66;100.00
62031;BME280;62035;52.094;5.112;2023-02-18T06:17:47;101899.47;;;11.54;100.00
62031;BME280;62035;52.094;5.112;2023-02-18T06:20:15;101893.50;;;11.71;100.00
62031;BME280;62035;52.094;5.112;2023-02-18T06:22:42;101890.34;;;11.56;100.00
62031;BME280;62035;52.094;5.112;2023-02-18T06:25:10;101892.31;;;11.54;100.00
62031;BME280;62035;52.094;5.112;2023-02-18T06:27:38;101902.97;;;11.54;100.00
62031;BME280;62035;52.094;5.112;2023-02-18T06:30:06;101890.78;;;11.41;100.00
62031;BME280;62035;52.094;5.112;2023-02-18T06:32:36;101893.97;;;11.34;100.00
62031;BME280;62035;52.094;5.112;2023-02-18T06:35:04;101899.69;;;11.30;100.00
62031;BME280;62035;52.094;5.112;2023-02-18T06:37:32;101889.53;;;11.24;100.00
62031;BME280;62035;52.094;5.112;2023-02-18T06:40:00;101912.66;;;11.23;100.00
62031;BME280;62035;52.094;5.112;2023-02-18T06:42:27;101894.81;;;11.14;100.00
62031;BME280;62035;52.094;5.112;2023-02-18T06:44:55;101903.81;;;11.23;100.00
62031;BME280;62035;52.094;5.112;2023-02-18T06:47:22;101900.19;;;11.24;100.00
62031;BME280;62035;52.094;5.112;2023-02-18T06:49:51;101906.09;;;11.27;100.00
62031;BME280;62035;52.094;5.112;2023-02-18T06:52:19;101907.75;;;11.40;100.00
62031;BME280;62035;52.094;5.112;2023-02-18T06:54:46;101904.16;;;11.29;100.00
62031;BME280;62035;52.094;5.112;2023-02-18T06:57:14;101917.69;;;11.38;100.00
62031;BME280;62035;52.094;5.112;2023-02-18T06:59:42;101901.38;;;11.31;100.00
62031;BME280;62035;52.094;5.112;2023-02-18T07:02:11;101891.56;;;11.31;100.00
62031;BME280;62035;52.094;5.112;2023-02-18T07:04:40;101887.31;;;11.29;100.00
62031;BME280;62035;52.094;5.112;2023-02-18T07:07:08;101898.75;;;11.52;100.00
62031;BME280;62035;52.094;5.112;2023-02-18T07:09:36;101894.81;;;11.35;100.00
62031;BME280;62035;52.094;5.112;2023-02-18T07:12:04;101884.63;;;11.19;100.00
62031;BME280;62035;52.094;5.112;2023-02-18T07:14:32;101901.00;;;11.35;100.00
62031;BME280;62035;52.094;5.112;2023-02-18T07:17:00;101905.22;;;11.17;100.00
62031;BME280;62035;52.094;5.112;2023-02-18T07:19:27;101905.47;;;11.14;100.00
62031;BME280;62035;52.094;5.112;2023-02-18T07:21:55;101893.88;;;11.25;100.00
62031;BME280;62035;52.094;5.112;2023-02-18T07:24:24;101890.44;;;11.13;100.00
62031;BME280;62035;52.094;5.112;2023-02-18T07:26:51;101897.41;;;11.25;100.00
62031;BME280;62035;52.094;5.112;2023-02-18T07:29:19;101894.34;;;11.09;100.00
62031;BME280;62035;52.094;5.112;2023-02-18T07:31:47;101888.56;;;11.25;100.00
62031;BME280;62035;52.094;5.112;2023-02-18T07:34:14;101886.72;;;11.25;100.00
62031;BME280;62035;52.094;5.112;2023-02-18T07:36:42;101887.41;;;11.39;100.00
62031;BME280;62035;52.094;5.112;2023-02-18T07:39:09;101876.66;;;11.29;100.00
62031;BME280;62035;52.094;5.112;2023-02-18T07:41:39;101882.19;;;11.16;100.00
62031;BME280;62035;52.094;5.112;2023-02-18T07:44:06;101863.72;;;11.24;100.00
62031;BME280;62035;52.094;5.112;2023-02-18T07:46:34;101875.44;;;11.33;100.00
62031;BME280;62035;52.094;5.112;2023-02-18T07:49:05;101891.97;;;11.48;100.00
62031;BME280;62035;52.094;5.112;2023-02-18T07:51:33;101871.41;;;11.39;100.00
62031;BME280;62035;52.094;5.112;2023-02-18T07:54:00;101871.38;;;11.50;100.00
62031;BME280;62035;52.094;5.112;2023-02-18T07:56:28;101877.59;;;11.60;100.00
62031;BME280;62035;52.094;5.112;2023-02-18T07:58:57;101872.53;;;11.36;100.00
62031;BME280;62035;52.094;5.112;2023-02-18T08:01:24;101881.16;;;11.28;100.00
62031;BME280;62035;52.094;5.112;2023-02-18T08:03:52;101884.28;;;11.33;100.00
62031;BME280;62035;52.094;5.112;2023-02-18T08:06:21;101888.44;;;11.26;100.00
62031;BME280;62035;52.094;5.112;2023-02-18T08:08:52;101893.84;;;11.15;100.00
62031;BME280;62035;52.094;5.112;2023-02-18T08:11:20;101876.19;;;11.03;100.00
62031;BME280;62035;52.094;5.112;2023-02-18T08:13:48;101890.94;;;11.07;100.00
62031;BME280;62035;52.094;5.112;2023-02-18T08:16:19;101881.59;;;11.13;100.00
62031;BME280;62035;52.094;5.112;2023-02-18T08:18:47;101889.00;;;11.09;100.00
62031;BME280;62035;52.094;5.112;2023-02-18T08:21:17;101888.53;;;11.04;100.00
62031;BME280;62035;52.094;5.112;2023-02-18T08:23:46;101893.75;;;11.06;100.00
62031;BME280;62035;52.094;5.112;2023-02-18T08:26:14;101888.78;;;11.01;100.00
62031;BME280;62035;52.094;5.112;2023-02-18T08:28:42;101892.66;;;10.97;100.00
62031;BME280;62035;52.094;5.112;2023-02-18T08:31:18;101901.84;;;11.04;100.00
62031;BME280;62035;52.094;5.112;2023-02-18T08:33:48;101896.88;;;11.11;100.00
62031;BME280;62035;52.094;5.112;2023-02-18T08:36:16;101904.28;;;10.96;100.00
62031;BME280;62035;52.094;5.112;2023-02-18T08:38:44;101891.47;;;10.90;100.00
62031;BME280;62035;52.094;5.112;2023-02-18T08:41:12;101894.97;;;11.01;100.00
62031;BME280;62035;52.094;5.112;2023-02-18T08:43:40;101872.72;;;10.91;100.00
62031;BME280;62035;52.094;5.112;2023-02-18T08:46:08;101897.41;;;10.93;100.00
62031;BME280;62035;52.094;5.112;2023-02-18T08:48:38;101885.31;;;10.89;100.00
62031;BME280;62035;52.094;5.112;2023-02-18T08:51:13;101872.94;;;10.99;100.00
62031;BME280;62035;52.094;5.112;2023-02-18T08:53:43;101896.56;;;10.93;100.00
62031;BME280;62035;52.094;5.112;2023-02-18T08:56:12;101904.41;;;10.94;100.00
62031;BME280;62035;52.094;5.112;2023-02-18T08:58:41;101899.94;;;10.95;100.00
62031;BME280;62035;52.094;5.112;2023-02-18T09:01:10;101906.81;;;11.09;100.00
62031;BME280;62035;52.094;5.112;2023-02-18T09:03:41;101897.22;;;11.17;100.00
62031;BME280;62035;52.094;5.112;2023-02-18T09:06:08;101910.06;;;11.12;100.00
62031;BME280;62035;52.094;5.112;2023-02-18T09:08:36;101906.44;;;11.13;100.00
62031;BME280;62035;52.094;5.112;2023-02-18T09:11:04;101902.66;;;11.16;100.00
62031;BME280;62035;52.094;5.112;2023-02-18T09:13:32;101918.00;;;11.23;100.00
62031;BME280;62035;52.094;5.112;2023-02-18T09:16:02;101917.41;;;11.52;100.00
62031;BME280;62035;52.094;5.112;2023-02-18T09:18:32;101901.06;;;11.45;100.00
62031;BME280;62035;52.094;5.112;2023-02-18T09:21:04;101902.41;;;11.19;100.00
62031;BME280;62035;52.094;5.112;2023-02-18T09:23:34;101914.09;;;11.27;100.00
62031;BME280;62035;52.094;5.112;2023-02-18T09:26:04;101924.88;;;11.26;100.00
62031;BME280;62035;52.094;5.112;2023-02-18T09:28:34;101917.28;;;11.21;100.00
62031;BME280;62035;52.094;5.112;2023-02-18T09:31:06;101906.31;;;11.35;100.00
62031;BME280;62035;52.094;5.112;2023-02-18T09:33:35;101908.13;;;11.35;100.00
62031;BME280;62035;52.094;5.112;2023-02-18T09:36:05;101894.81;;;11.35;100.00
62031;BME280;62035;52.094;5.112;2023-02-18T09:38:33;101906.19;;;11.37;100.00
62031;BME280;62035;52.094;5.112;2023-02-18T09:41:03;101919.69;;;11.56;100.00
62031;BME280;62035;52.094;5.112;2023-02-18T09:43:38;101914.22;;;11.58;100.00
62031;BME280;62035;52.094;5.112;2023-02-18T09:46:17;101908.16;;;11.56;100.00
62031;BME280;62035;52.094;5.112;2023-02-18T09:48:47;101917.44;;;11.61;100.00
62031;BME280;62035;52.094;5.112;2023-02-18T09:51:18;101936.81;;;11.63;100.00
62031;BME280;62035;52.094;5.112;2023-02-18T09:53:46;101919.78;;;11.76;100.00
62031;BME280;62035;52.094;5.112;2023-02-18T09:56:17;101917.31;;;11.63;100.00
62031;BME280;62035;52.094;5.112;2023-02-18T09:58:49;101922.38;;;11.77;100.00
62031;BME280;62035;52.094;5.112;2023-02-18T10:01:23;101908.09;;;11.67;100.00
62031;BME280;62035;52.094;5.112;2023-02-18T10:03:59;101911.78;;;11.76;100.00
62031;BME280;62035;52.094;5.112;2023-02-18T10:06:33;101925.09;;;11.87;100.00
62031;BME280;62035;52.094;5.112;2023-02-18T10:09:05;101921.47;;;11.88;100.00
62031;BME280;62035;52.094;5.112;2023-02-18T10:11:52;101930.44;;;11.87;100.00
62031;BME280;62035;52.094;5.112;2023-02-18T10:14:23;101926.66;;;11.89;100.00
62031;BME280;62035;52.094;5.112;2023-02-18T10:16:52;101929.41;;;11.99;100.00
62031;BME280;62035;52.094;5.112;2023-02-18T10:19:24;101935.69;;;11.98;100.00
62031;BME280;62035;52.094;5.112;2023-02-18T10:21:57;101939.22;;;11.98;100.00
62031;BME280;62035;52.094;5.112;2023-02-18T10:24:31;101932.91;;;11.99;100.00
62031;BME280;62035;52.094;5.112;2023-02-18T10:27:03;101956.97;;;11.88;100.00
62031;BME280;62035;52.094;5.112;2023-02-18T10:29:33;101936.56;;;11.98;100.00
62031;BME280;62035;52.094;5.112;2023-02-18T10:32:06;101944.00;;;12.05;100.00
62031;BME280;62035;52.094;5.112;2023-02-18T10:34:47;101948.56;;;12.14;100.00
62031;BME280;62035;52.094;5.112;2023-02-18T10:37:39;101947.03;;;12.21;100.00
62031;BME280;62035;52.094;5.112;2023-02-18T10:40:17;101954.53;;;12.27;100.00
62031;BME280;62035;52.094;5.112;2023-02-18T10:43:02;101954.88;;;12.13;100.00
62031;BME280;62035;52.094;5.112;2023-02-18T10:45:44;101955.63;;;12.24;100.00
62031;BME280;62035;52.094;5.112;2023-02-18T10:48:31;101959.03;;;12.26;100.00
62031;BME280;62035;52.094;5.112;2023-02-18T10:51:18;101953.28;;;12.31;100.00
62031;BME280;62035;52.094;5.112;2023-02-18T10:53:50;101962.75;;;12.45;100.00
62031;BME280;62035;52.094;5.112;2023-02-18T10:56:32;101951.69;;;12.59;100.00
62031;BME280;62035;52.094;5.112;2023-02-18T10:59:09;101954.78;;;12.54;100.00
62031;BME280;62035;52.094;5.112;2023-02-18T11:01:40;101942.28;;;12.55;100.00
62031;BME280;62035;52.094;5.112;2023-02-18T11:04:13;101939.41;;;12.47;100.00
62031;BME280;62035;52.094;5.112;2023-02-18T11:06:45;101943.69;;;12.59;100.00
62031;BME280;62035;52.094;5.112;2023-02-18T11:09:25;101951.34;;;12.83;100.00
62031;BME280;62035;52.094;5.112;2023-02-18T11:12:02;101936.28;;;12.82;100.00
62031;BME280;62035;52.094;5.112;2023-02-18T11:14:42;101951.91;;;12.77;100.00
62031;BME280;62035;52.094;5.112;2023-02-18T11:17:26;101945.13;;;12.63;100.00
62031;BME280;62035;52.094;5.112;2023-02-18T11:19:58;101941.78;;;12.71;100.00
62031;BME280;62035;52.094;5.112;2023-02-18T11:22:29;101950.25;;;12.95;100.00
62031;BME280;62035;52.094;5.112;2023-02-18T11:25:05;101953.16;;;12.82;100.00
62031;BME280;62035;52.094;5.112;2023-02-18T11:27:49;101955.97;;;12.81;100.00
62031;BME280;62035;52.094;5.112;2023-02-18T11:30:19;101963.00;;;12.82;100.00
62031;BME280;62035;52.094;5.112;2023-02-18T11:32:50;101962.16;;;12.72;100.00
62031;BME280;62035;52.094;5.112;2023-02-18T11:35:24;101966.34;;;12.64;100.00
62031;BME280;62035;52.094;5.112;2023-02-18T11:37:55;101978.00;;;12.63;100.00
62031;BME280;62035;52.094;5.112;2023-02-18T11:40:29;101977.16;;;12.63;100.00
62031;BME280;62035;52.094;5.112;2023-02-18T11:43:03;101957.97;;;12.48;100.00
62031;BME280;62035;52.094;5.112;2023-02-18T11:45:34;101968.44;;;12.61;100.00
62031;BME280;62035;52.094;5.112;2023-02-18T11:48:13;101981.69;;;12.82;100.00
62031;BME280;62035;52.094;5.112;2023-02-18T11:50:43;101964.97;;;12.80;100.00
62031;BME280;62035;52.094;5.112;2023-02-18T11:53:26;101952.75;;;12.87;100.00
62031;BME280;62035;52.094;5.112;2023-02-18T11:55:59;101954.22;;;13.10;100.00
62031;BME280;62035;52.094;5.112;2023-02-18T11:58:38;101947.81;;;13.42;100.00
62031;BME280;62035;52.094;5.112;2023-02-18T12:01:14;101948.63;;;13.32;100.00
62031;BME280;62035;52.094;5.112;2023-02-18T12:03:57;101950.06;;;13.56;100.00
62031;BME280;62035;52.094;5.112;2023-02-18T12:06:33;101936.53;;;13.57;100.00
62031;BME280;62035;52.094;5.112;2023-02-18T12:09:14;101927.13;;;13.44;100.00
62031;BME280;62035;52.094;5.112;2023-02-18T12:11:53;101942.44;;;13.61;100.00
62031;BME280;62035;52.094;5.112;2023-02-18T12:14:23;101943.88;;;13.46;100.00
62031;BME280;62035;52.094;5.112;2023-02-18T12:17:13;101933.44;;;13.33;100.00
62031;BME280;62035;52.094;5.112;2023-02-18T12:20:02;101934.28;;;13.33;100.00
62031;BME280;62035;52.094;5.112;2023-02-18T12:22:50;101924.44;;;13.24;100.00
62031;BME280;62035;52.094;5.112;2023-02-18T12:25:35;101929.47;;;13.08;100.00
62031;BME280;62035;52.094;5.112;2023-02-18T12:28:27;101940.16;;;13.08;100.00
62031;BME280;62035;52.094;5.112;2023-02-18T12:31:24;101938.38;;;13.38;100.00
62031;BME280;62035;52.094;5.112;2023-02-18T12:34:13;101933.72;;;13.40;100.00
62031;BME280;62035;52.094;5.112;2023-02-18T12:37:00;101940.75;;;13.41;100.00
62031;BME280;62035;52.094;5.112;2023-02-18T12:39:50;101937.66;;;13.55;100.00
62031;BME280;62035;52.094;5.112;2023-02-18T12:42:37;101942.16;;;13.45;100.00
62031;BME280;62035;52.094;5.112;2023-02-18T12:45:29;101942.97;;;13.74;100.00
62031;BME280;62035;52.094;5.112;2023-02-18T12:48:34;101947.81;;;14.17;100.00
62031;BME280;62035;52.094;5.112;2023-02-18T12:51:25;101929.63;;;14.21;100.00
62031;BME280;62035;52.094;5.112;2023-02-18T12:57:33;101943.63;;;14.05;100.00
62031;BME280;62035;52.094;5.112;2023-02-18T13:07:24;101943.69;;;13.86;100.00
62031;BME280;62035;52.094;5.112;2023-02-18T13:10:19;101941.72;;;13.78;100.00
62031;BME280;62035;52.094;5.112;2023-02-18T13:13:10;101941.69;;;13.88;100.00
62031;BME280;62035;52.094;5.112;2023-02-18T13:15:45;101936.50;;;13.86;100.00
62031;BME280;62035;52.094;5.112;2023-02-18T13:18:22;101954.66;;;13.83;100.00
62031;BME280;62035;52.094;5.112;2023-02-18T13:20:54;101959.09;;;14.11;100.00
62031;BME280;62035;52.094;5.112;2023-02-18T13:23:29;101946.91;;;13.99;100.00
62031;BME280;62035;52.094;5.112;2023-02-18T13:26:02;101961.50;;;14.05;100.00
62031;BME280;62035;52.094;5.112;2023-02-18T13:28:39;101959.25;;;14.00;100.00